LTAC/ESB METAR and TAF weather

Enter ICAO airport designator
Station Type Date Time Source
LTAC METAR 2021/05/11 22:20 UTC NOAA

LTAC 112220Z 01008KT CAVOK 09/M01 Q1013 NOSIG


Station Type Date Time Source
LTAC Decoded METAR 2021/05/11 22:20 UTC NOAA

Ankara / Esenboga, Turkey (LTAC) 40-07N 032-59E 949M
May 11, 2021 - 06:20 PM EDT / 2021.05.11 2220 UTC
Wind: from the N (010 degrees) at 9 MPH (8 KT):0
Visibility: greater than 7 mile(s):0
Temperature: 48 F (9 C)
Dew Point: 30 F (-1 C)
Relative Humidity: 49%
Pressure (altimeter): 29.91 in. Hg (1013 hPa)
ob: LTAC 112220Z 01008KT CAVOK 09/M01 Q1013 NOSIG
cycle: 22

Station Type Date Time Source
LTAC TAF 2021/05/11 18:03 UTC NOAA

TAF TAF LTAC 111640Z 1118/1218 VRB02KT CAVOK
BECMG 1208/1210 FEW040
TEMPO 1209/1212 24012KT
BECMG 1214/1216 CAVOK

Example: see airport list